Glory Ocean — 9VDE7 — position and weather

sailwx.info

Track history (hours):
 
Tides and Currents Weather Stations Pressure Air Temp Water Temp Dewpoint Dewpoint Depression Visibility Wind Speed Wind Dir Waves Ship Positions

Glory Ocean

Last reported at 2016-May-03 12:18 UTC. Time now 2016-May-03 14:27 UTC.
Position N 36°47' E 001°03'.

Length 139 m; draft 5.7 m.

Type: Cargo ship. MMSI: 564700000.

Date/timePositionNaut miles runAvg speedWind from/ knotsBaromVisibWave heightAir tempDewpointWater temp
2016-May-03 12:18N 36°47' E 001°03'912.3
2016-May-03 11:33N 36°46' E 000°52'1212.3
2016-May-03 10:33N 36°44' E 000°37'1212.2
2016-May-03 09:33N 36°42' E 000°22'3812.0
2016-May-03 06:23N 36°36' W 000°25'1011.7
2016-May-03 05:33N 36°34' W 000°37'3112.6
2016-May-03 03:06N 36°29' W 001°15'20012.1
2016-May-02 10:33N 35°59' W 005°19'27510.6
2016-May-01 08:32N 36°56' W 010°54'88 8.0
2016-Apr-30 21:32N 37°30' W 012°36'7 7.0
2016-Apr-30 20:33N 37°29' W 012°45'9 8.1
2016-Apr-30 19:29N 37°28' W 012°56'  
Track history (hours):
 
Tides and Currents Weather Stations Pressure Air Temp Water Temp Dewpoint Dewpoint Depression Visibility Wind Speed Wind Dir Waves Ship Positions

Glory Ocean

Last reported at 2016-May-03 12:18 UTC. Time now 2016-May-03 14:27 UTC.
Position N 36°47' E 001°03'.

Length 139 m; draft 5.7 m.

Type: Cargo ship. MMSI: 564700000.

Date/timePositionNaut miles runAvg speedWind from/ knotsBaromVisibWave heightAir tempDewpointWater temp
2016-May-03 12:18N 36°47' E 001°03'912.3
2016-May-03 11:33N 36°46' E 000°52'1212.3
2016-May-03 10:33N 36°44' E 000°37'1212.2
2016-May-03 09:33N 36°42' E 000°22'3812.0
2016-May-03 06:23N 36°36' W 000°25'1011.7
2016-May-03 05:33N 36°34' W 000°37'3112.6
2016-May-03 03:06N 36°29' W 001°15'20012.1
2016-May-02 10:33N 35°59' W 005°19'27510.6
2016-May-01 08:32N 36°56' W 010°54'88 8.0
2016-Apr-30 21:32N 37°30' W 012°36'7 7.0
2016-Apr-30 20:33N 37°29' W 012°45'9 8.1
2016-Apr-30 19:29N 37°28' W 012°56'  

Dump ship's entire track history